sensor_id;sensor_type;location;lat;lon;timestamp;P1;durP1;ratioP1;P2;durP2;ratioP2
13592;SDS011;6867;50.998;4.250;2024-03-29T00:01:08;4.17;;;1.07;;
13592;SDS011;6867;50.998;4.250;2024-03-29T00:03:34;3.70;;;0.90;;
13592;SDS011;6867;50.998;4.250;2024-03-29T00:06:00;5.77;;;1.00;;
13592;SDS011;6867;50.998;4.250;2024-03-29T00:08:26;3.67;;;1.23;;
13592;SDS011;6867;50.998;4.250;2024-03-29T00:10:53;2.37;;;0.80;;
13592;SDS011;6867;50.998;4.250;2024-03-29T00:13:18;3.33;;;0.90;;
13592;SDS011;6867;50.998;4.250;2024-03-29T00:15:45;1.40;;;0.70;;
13592;SDS011;6867;50.998;4.250;2024-03-29T00:18:11;1.93;;;1.00;;
13592;SDS011;6867;50.998;4.250;2024-03-29T00:20:36;4.07;;;0.83;;
13592;SDS011;6867;50.998;4.250;2024-03-29T00:23:02;1.27;;;0.70;;
13592;SDS011;6867;50.998;4.250;2024-03-29T00:25:28;4.90;;;1.00;;
13592;SDS011;6867;50.998;4.250;2024-03-29T00:27:55;2.90;;;1.00;;
13592;SDS011;6867;50.998;4.250;2024-03-29T00:30:21;4.70;;;1.20;;
13592;SDS011;6867;50.998;4.250;2024-03-29T00:32:47;5.17;;;1.03;;
13592;SDS011;6867;50.998;4.250;2024-03-29T00:35:12;4.47;;;0.70;;
13592;SDS011;6867;50.998;4.250;2024-03-29T00:37:38;3.70;;;1.07;;
13592;SDS011;6867;50.998;4.250;2024-03-29T00:40:04;2.73;;;0.80;;
13592;SDS011;6867;50.998;4.250;2024-03-29T00:42:30;1.10;;;0.73;;
13592;SDS011;6867;50.998;4.250;2024-03-29T00:44:58;7.20;;;1.20;;
13592;SDS011;6867;50.998;4.250;2024-03-29T00:47:23;3.80;;;0.93;;
13592;SDS011;6867;50.998;4.250;2024-03-29T00:49:49;2.33;;;0.70;;
13592;SDS011;6867;50.998;4.250;2024-03-29T00:52:15;3.07;;;0.93;;
13592;SDS011;6867;50.998;4.250;2024-03-29T00:54:40;4.83;;;0.97;;
13592;SDS011;6867;50.998;4.250;2024-03-29T00:57:06;5.00;;;1.40;;
13592;SDS011;6867;50.998;4.250;2024-03-29T00:59:32;3.93;;;1.10;;
13592;SDS011;6867;50.998;4.250;2024-03-29T01:01:59;2.60;;;1.17;;
13592;SDS011;6867;50.998;4.250;2024-03-29T01:04:25;2.10;;;0.93;;
13592;SDS011;6867;50.998;4.250;2024-03-29T01:06:50;2.90;;;1.30;;
13592;SDS011;6867;50.998;4.250;2024-03-29T01:09:17;5.90;;;1.10;;
13592;SDS011;6867;50.998;4.250;2024-03-29T01:11:43;2.27;;;0.90;;
13592;SDS011;6867;50.998;4.250;2024-03-29T01:14:09;4.80;;;1.27;;
13592;SDS011;6867;50.998;4.250;2024-03-29T01:16:36;2.60;;;1.20;;
13592;SDS011;6867;50.998;4.250;2024-03-29T01:19:03;2.10;;;1.00;;
13592;SDS011;6867;50.998;4.250;2024-03-29T01:21:29;3.60;;;0.93;;
13592;SDS011;6867;50.998;4.250;2024-03-29T01:23:55;3.17;;;1.30;;
13592;SDS011;6867;50.998;4.250;2024-03-29T01:26:21;1.73;;;0.90;;
13592;SDS011;6867;50.998;4.250;2024-03-29T01:28:46;1.23;;;0.93;;
13592;SDS011;6867;50.998;4.250;2024-03-29T01:31:12;2.17;;;0.87;;
13592;SDS011;6867;50.998;4.250;2024-03-29T01:33:38;2.77;;;0.87;;
13592;SDS011;6867;50.998;4.250;2024-03-29T01:36:05;3.30;;;1.10;;
13592;SDS011;6867;50.998;4.250;2024-03-29T01:38:31;2.13;;;0.90;;
13592;SDS011;6867;50.998;4.250;2024-03-29T01:40:57;2.80;;;0.90;;
13592;SDS011;6867;50.998;4.250;2024-03-29T01:43:23;3.97;;;0.80;;
13592;SDS011;6867;50.998;4.250;2024-03-29T01:45:54;1.97;;;0.70;;
13592;SDS011;6867;50.998;4.250;2024-03-29T01:48:22;1.47;;;0.50;;
13592;SDS011;6867;50.998;4.250;2024-03-29T01:50:50;2.87;;;0.60;;
13592;SDS011;6867;50.998;4.250;2024-03-29T01:53:20;2.63;;;0.90;;
13592;SDS011;6867;50.998;4.250;2024-03-29T01:55:48;1.73;;;1.07;;
13592;SDS011;6867;50.998;4.250;2024-03-29T01:58:14;1.53;;;0.60;;
13592;SDS011;6867;50.998;4.250;2024-03-29T02:00:52;2.30;;;1.10;;
13592;SDS011;6867;50.998;4.250;2024-03-29T02:03:20;1.90;;;0.83;;
13592;SDS011;6867;50.998;4.250;2024-03-29T02:05:49;2.97;;;1.20;;
13592;SDS011;6867;50.998;4.250;2024-03-29T02:08:15;3.73;;;1.13;;
13592;SDS011;6867;50.998;4.250;2024-03-29T02:10:44;2.93;;;0.80;;
13592;SDS011;6867;50.998;4.250;2024-03-29T02:13:13;3.00;;;0.90;;
13592;SDS011;6867;50.998;4.250;2024-03-29T02:15:40;1.90;;;1.00;;
13592;SDS011;6867;50.998;4.250;2024-03-29T02:18:07;3.40;;;0.67;;
13592;SDS011;6867;50.998;4.250;2024-03-29T02:20:34;2.87;;;0.80;;
13592;SDS011;6867;50.998;4.250;2024-03-29T02:23:02;2.00;;;0.60;;
13592;SDS011;6867;50.998;4.250;2024-03-29T02:25:34;1.90;;;0.87;;
13592;SDS011;6867;50.998;4.250;2024-03-29T02:28:01;1.70;;;0.70;;
13592;SDS011;6867;50.998;4.250;2024-03-29T02:30:29;0.53;;;0.50;;
13592;SDS011;6867;50.998;4.250;2024-03-29T02:32:56;1.40;;;0.40;;
13592;SDS011;6867;50.998;4.250;2024-03-29T02:35:23;0.80;;;0.33;;
13592;SDS011;6867;50.998;4.250;2024-03-29T02:37:50;2.17;;;0.50;;
13592;SDS011;6867;50.998;4.250;2024-03-29T02:40:17;0.47;;;0.37;;
13592;SDS011;6867;50.998;4.250;2024-03-29T02:42:45;0.37;;;0.30;;
13592;SDS011;6867;50.998;4.250;2024-03-29T02:45:12;0.60;;;0.40;;
13592;SDS011;6867;50.998;4.250;2024-03-29T02:47:38;0.43;;;0.20;;
13592;SDS011;6867;50.998;4.250;2024-03-29T02:50:05;0.80;;;0.30;;
13592;SDS011;6867;50.998;4.250;2024-03-29T02:52:32;0.30;;;0.27;;
13592;SDS011;6867;50.998;4.250;2024-03-29T02:54:58;3.37;;;0.40;;
13592;SDS011;6867;50.998;4.250;2024-03-29T02:57:25;0.47;;;0.30;;
13592;SDS011;6867;50.998;4.250;2024-03-29T02:59:52;0.80;;;0.57;;
13592;SDS011;6867;50.998;4.250;2024-03-29T03:02:18;1.47;;;0.70;;
13592;SDS011;6867;50.998;4.250;2024-03-29T03:04:44;1.07;;;0.50;;
13592;SDS011;6867;50.998;4.250;2024-03-29T03:07:11;1.00;;;0.60;;
13592;SDS011;6867;50.998;4.250;2024-03-29T03:09:55;2.07;;;0.60;;
13592;SDS011;6867;50.998;4.250;2024-03-29T03:12:39;2.17;;;0.73;;
13592;SDS011;6867;50.998;4.250;2024-03-29T03:15:07;2.03;;;1.00;;
13592;SDS011;6867;50.998;4.250;2024-03-29T03:17:34;1.67;;;1.07;;
13592;SDS011;6867;50.998;4.250;2024-03-29T03:20:01;1.47;;;0.70;;
13592;SDS011;6867;50.998;4.250;2024-03-29T03:22:29;1.00;;;0.63;;
13592;SDS011;6867;50.998;4.250;2024-03-29T03:24:56;2.00;;;0.80;;
13592;SDS011;6867;50.998;4.250;2024-03-29T03:27:22;4.20;;;1.10;;
13592;SDS011;6867;50.998;4.250;2024-03-29T03:29:49;1.43;;;0.87;;
13592;SDS011;6867;50.998;4.250;2024-03-29T03:32:16;2.00;;;0.80;;
13592;SDS011;6867;50.998;4.250;2024-03-29T03:34:43;2.40;;;1.00;;
13592;SDS011;6867;50.998;4.250;2024-03-29T03:37:09;2.27;;;1.07;;
13592;SDS011;6867;50.998;4.250;2024-03-29T03:39:36;2.00;;;1.00;;
13592;SDS011;6867;50.998;4.250;2024-03-29T03:42:02;3.13;;;1.00;;
13592;SDS011;6867;50.998;4.250;2024-03-29T03:44:29;4.10;;;1.20;;
13592;SDS011;6867;50.998;4.250;2024-03-29T03:46:55;0.97;;;0.83;;
13592;SDS011;6867;50.998;4.250;2024-03-29T03:49:23;2.57;;;1.13;;
13592;SDS011;6867;50.998;4.250;2024-03-29T03:51:49;4.27;;;1.40;;
13592;SDS011;6867;50.998;4.250;2024-03-29T03:54:16;3.10;;;1.07;;
13592;SDS011;6867;50.998;4.250;2024-03-29T03:56:41;2.90;;;0.90;;
13592;SDS011;6867;50.998;4.250;2024-03-29T03:59:08;2.00;;;0.97;;
13592;SDS011;6867;50.998;4.250;2024-03-29T04:01:34;4.17;;;1.23;;
13592;SDS011;6867;50.998;4.250;2024-03-29T04:04:00;1.00;;;0.77;;
13592;SDS011;6867;50.998;4.250;2024-03-29T04:06:27;3.97;;;0.90;;
13592;SDS011;6867;50.998;4.250;2024-03-29T04:08:54;3.23;;;1.00;;
13592;SDS011;6867;50.998;4.250;2024-03-29T04:11:21;3.93;;;1.00;;
13592;SDS011;6867;50.998;4.250;2024-03-29T04:13:46;3.90;;;1.37;;
13592;SDS011;6867;50.998;4.250;2024-03-29T04:16:13;2.83;;;0.60;;
13592;SDS011;6867;50.998;4.250;2024-03-29T04:18:39;3.47;;;0.80;;
13592;SDS011;6867;50.998;4.250;2024-03-29T04:21:05;5.23;;;0.80;;
13592;SDS011;6867;50.998;4.250;2024-03-29T04:23:33;1.87;;;0.93;;
13592;SDS011;6867;50.998;4.250;2024-03-29T04:26:00;4.00;;;1.03;;
13592;SDS011;6867;50.998;4.250;2024-03-29T04:28:26;1.77;;;1.00;;
13592;SDS011;6867;50.998;4.250;2024-03-29T04:30:53;2.63;;;1.00;;
13592;SDS011;6867;50.998;4.250;2024-03-29T04:33:19;2.63;;;1.00;;
13592;SDS011;6867;50.998;4.250;2024-03-29T04:35:53;1.83;;;0.70;;
13592;SDS011;6867;50.998;4.250;2024-03-29T04:38:19;1.67;;;1.10;;
13592;SDS011;6867;50.998;4.250;2024-03-29T04:40:48;0.90;;;0.70;;
13592;SDS011;6867;50.998;4.250;2024-03-29T04:43:14;3.43;;;1.20;;
13592;SDS011;6867;50.998;4.250;2024-03-29T04:45:42;3.80;;;1.20;;
13592;SDS011;6867;50.998;4.250;2024-03-29T04:48:09;1.30;;;1.20;;
13592;SDS011;6867;50.998;4.250;2024-03-29T04:50:36;2.10;;;1.27;;
13592;SDS011;6867;50.998;4.250;2024-03-29T04:53:02;1.97;;;1.17;;
13592;SDS011;6867;50.998;4.250;2024-03-29T04:55:29;4.40;;;1.20;;
13592;SDS011;6867;50.998;4.250;2024-03-29T04:57:57;1.57;;;1.20;;
13592;SDS011;6867;50.998;4.250;2024-03-29T05:00:24;1.60;;;1.07;;
13592;SDS011;6867;50.998;4.250;2024-03-29T05:02:50;2.17;;;1.03;;
13592;SDS011;6867;50.998;4.250;2024-03-29T05:05:17;1.33;;;0.83;;
13592;SDS011;6867;50.998;4.250;2024-03-29T05:07:44;4.47;;;0.93;;
13592;SDS011;6867;50.998;4.250;2024-03-29T05:10:10;3.77;;;0.77;;
13592;SDS011;6867;50.998;4.250;2024-03-29T05:12:37;1.73;;;0.73;;
13592;SDS011;6867;50.998;4.250;2024-03-29T05:15:06;1.73;;;0.93;;
13592;SDS011;6867;50.998;4.250;2024-03-29T05:17:34;1.70;;;0.90;;
13592;SDS011;6867;50.998;4.250;2024-03-29T05:20:02;2.73;;;1.10;;
13592;SDS011;6867;50.998;4.250;2024-03-29T05:22:30;1.70;;;0.90;;
13592;SDS011;6867;50.998;4.250;2024-03-29T05:24:57;1.67;;;1.17;;
13592;SDS011;6867;50.998;4.250;2024-03-29T05:27:23;4.90;;;0.90;;
13592;SDS011;6867;50.998;4.250;2024-03-29T05:29:50;0.93;;;0.50;;
13592;SDS011;6867;50.998;4.250;2024-03-29T05:32:18;0.70;;;0.67;;
13592;SDS011;6867;50.998;4.250;2024-03-29T05:34:45;1.10;;;0.70;;
13592;SDS011;6867;50.998;4.250;2024-03-29T05:37:12;2.83;;;0.80;;
13592;SDS011;6867;50.998;4.250;2024-03-29T05:39:40;1.33;;;0.60;;
13592;SDS011;6867;50.998;4.250;2024-03-29T05:42:07;0.93;;;0.53;;
13592;SDS011;6867;50.998;4.250;2024-03-29T05:44:34;2.13;;;0.80;;
13592;SDS011;6867;50.998;4.250;2024-03-29T05:47:02;1.17;;;0.60;;
13592;SDS011;6867;50.998;4.250;2024-03-29T05:49:31;0.40;;;0.40;;
13592;SDS011;6867;50.998;4.250;2024-03-29T05:51:58;3.83;;;0.67;;
13592;SDS011;6867;50.998;4.250;2024-03-29T05:54:25;1.40;;;0.67;;
13592;SDS011;6867;50.998;4.250;2024-03-29T05:56:51;1.20;;;0.60;;
13592;SDS011;6867;50.998;4.250;2024-03-29T05:59:18;1.80;;;0.63;;
13592;SDS011;6867;50.998;4.250;2024-03-29T06:01:45;1.67;;;0.50;;
13592;SDS011;6867;50.998;4.250;2024-03-29T06:04:11;1.33;;;0.77;;
13592;SDS011;6867;50.998;4.250;2024-03-29T06:06:42;2.20;;;0.73;;
13592;SDS011;6867;50.998;4.250;2024-03-29T06:09:09;1.07;;;0.70;;
13592;SDS011;6867;50.998;4.250;2024-03-29T06:11:39;0.80;;;0.60;;
13592;SDS011;6867;50.998;4.250;2024-03-29T06:14:05;1.80;;;0.60;;
13592;SDS011;6867;50.998;4.250;2024-03-29T06:16:50;6.30;;;1.00;;
13592;SDS011;6867;50.998;4.250;2024-03-29T06:19:34;1.97;;;0.67;;
13592;SDS011;6867;50.998;4.250;2024-03-29T06:22:02;1.77;;;0.77;;
13592;SDS011;6867;50.998;4.250;2024-03-29T06:24:29;1.43;;;0.80;;
13592;SDS011;6867;50.998;4.250;2024-03-29T06:26:57;1.33;;;0.63;;
13592;SDS011;6867;50.998;4.250;2024-03-29T06:29:24;0.53;;;0.53;;
13592;SDS011;6867;50.998;4.250;2024-03-29T06:31:50;1.10;;;0.60;;
13592;SDS011;6867;50.998;4.250;2024-03-29T06:34:17;1.40;;;0.70;;
13592;SDS011;6867;50.998;4.250;2024-03-29T06:36:44;1.77;;;0.90;;
13592;SDS011;6867;50.998;4.250;2024-03-29T06:39:12;1.73;;;0.60;;
13592;SDS011;6867;50.998;4.250;2024-03-29T06:41:39;2.47;;;0.80;;
13592;SDS011;6867;50.998;4.250;2024-03-29T06:44:05;0.97;;;0.77;;
13592;SDS011;6867;50.998;4.250;2024-03-29T06:46:32;3.20;;;0.90;;
13592;SDS011;6867;50.998;4.250;2024-03-29T06:48:59;3.77;;;0.93;;
13592;SDS011;6867;50.998;4.250;2024-03-29T06:51:26;3.00;;;1.27;;
13592;SDS011;6867;50.998;4.250;2024-03-29T06:53:52;2.23;;;1.40;;
13592;SDS011;6867;50.998;4.250;2024-03-29T06:56:20;1.80;;;0.90;;
13592;SDS011;6867;50.998;4.250;2024-03-29T06:58:47;1.63;;;1.17;;
13592;SDS011;6867;50.998;4.250;2024-03-29T07:01:14;1.87;;;1.30;;
13592;SDS011;6867;50.998;4.250;2024-03-29T07:03:40;2.70;;;1.27;;
13592;SDS011;6867;50.998;4.250;2024-03-29T07:06:07;2.83;;;1.50;;
13592;SDS011;6867;50.998;4.250;2024-03-29T07:08:34;2.30;;;1.30;;
13592;SDS011;6867;50.998;4.250;2024-03-29T07:11:01;1.93;;;1.00;;
13592;SDS011;6867;50.998;4.250;2024-03-29T07:13:30;2.33;;;0.97;;
13592;SDS011;6867;50.998;4.250;2024-03-29T07:15:57;3.67;;;1.13;;
13592;SDS011;6867;50.998;4.250;2024-03-29T07:18:24;1.10;;;0.80;;
13592;SDS011;6867;50.998;4.250;2024-03-29T07:20:50;0.80;;;0.80;;
13592;SDS011;6867;50.998;4.250;2024-03-29T07:23:17;1.70;;;1.20;;
13592;SDS011;6867;50.998;4.250;2024-03-29T07:25:45;1.63;;;1.20;;
13592;SDS011;6867;50.998;4.250;2024-03-29T07:28:23;3.57;;;1.50;;
13592;SDS011;6867;50.998;4.250;2024-03-29T07:30:51;4.23;;;1.17;;
13592;SDS011;6867;50.998;4.250;2024-03-29T07:33:18;2.00;;;1.20;;
13592;SDS011;6867;50.998;4.250;2024-03-29T07:35:46;1.93;;;1.20;;
13592;SDS011;6867;50.998;4.250;2024-03-29T07:38:13;1.90;;;1.27;;
13592;SDS011;6867;50.998;4.250;2024-03-29T07:40:40;2.47;;;1.23;;
13592;SDS011;6867;50.998;4.250;2024-03-29T07:43:07;1.73;;;1.03;;
13592;SDS011;6867;50.998;4.250;2024-03-29T07:45:34;3.20;;;1.10;;
13592;SDS011;6867;50.998;4.250;2024-03-29T07:48:02;1.30;;;1.20;;
13592;SDS011;6867;50.998;4.250;2024-03-29T07:50:29;2.00;;;1.10;;
13592;SDS011;6867;50.998;4.250;2024-03-29T07:52:56;2.30;;;1.40;;
13592;SDS011;6867;50.998;4.250;2024-03-29T07:55:23;3.30;;;1.43;;
13592;SDS011;6867;50.998;4.250;2024-03-29T07:57:49;4.80;;;1.50;;
13592;SDS011;6867;50.998;4.250;2024-03-29T08:00:16;5.00;;;1.67;;
13592;SDS011;6867;50.998;4.250;2024-03-29T08:02:43;3.53;;;1.50;;
13592;SDS011;6867;50.998;4.250;2024-03-29T08:05:12;3.53;;;1.80;;
13592;SDS011;6867;50.998;4.250;2024-03-29T08:07:39;2.70;;;1.70;;
13592;SDS011;6867;50.998;4.250;2024-03-29T08:10:06;3.60;;;1.70;;
13592;SDS011;6867;50.998;4.250;2024-03-29T08:12:33;3.90;;;1.90;;
13592;SDS011;6867;50.998;4.250;2024-03-29T08:15:02;3.03;;;1.60;;
13592;SDS011;6867;50.998;4.250;2024-03-29T08:17:29;4.20;;;2.03;;
13592;SDS011;6867;50.998;4.250;2024-03-29T08:19:55;3.03;;;1.80;;
13592;SDS011;6867;50.998;4.250;2024-03-29T08:22:24;2.20;;;1.55;;
13592;SDS011;6867;50.998;4.250;2024-03-29T08:24:51;4.40;;;2.05;;
13592;SDS011;6867;50.998;4.250;2024-03-29T08:27:17;2.50;;;1.40;;
13592;SDS011;6867;50.998;4.250;2024-03-29T08:29:44;2.92;;;2.03;;
13592;SDS011;6867;50.998;4.250;2024-03-29T08:32:11;2.72;;;1.73;;
13592;SDS011;6867;50.998;4.250;2024-03-29T08:34:37;3.35;;;1.85;;
13592;SDS011;6867;50.998;4.250;2024-03-29T08:37:04;3.40;;;1.90;;
13592;SDS011;6867;50.998;4.250;2024-03-29T08:39:33;2.83;;;1.45;;
13592;SDS011;6867;50.998;4.250;2024-03-29T08:42:02;4.28;;;1.92;;
13592;SDS011;6867;50.998;4.250;2024-03-29T08:44:30;3.25;;;1.90;;
13592;SDS011;6867;50.998;4.250;2024-03-29T08:46:57;3.17;;;1.92;;
13592;SDS011;6867;50.998;4.250;2024-03-29T08:49:24;2.53;;;1.70;;
13592;SDS011;6867;50.998;4.250;2024-03-29T08:51:51;3.45;;;1.75;;
13592;SDS011;6867;50.998;4.250;2024-03-29T08:54:17;3.53;;;2.13;;
13592;SDS011;6867;50.998;4.250;2024-03-29T08:56:45;3.50;;;2.15;;
13592;SDS011;6867;50.998;4.250;2024-03-29T08:59:13;3.97;;;1.92;;
13592;SDS011;6867;50.998;4.250;2024-03-29T09:01:41;3.30;;;1.67;;
13592;SDS011;6867;50.998;4.250;2024-03-29T09:04:08;2.38;;;1.55;;
13592;SDS011;6867;50.998;4.250;2024-03-29T09:06:36;3.72;;;1.80;;
13592;SDS011;6867;50.998;4.250;2024-03-29T09:09:03;2.33;;;1.58;;
13592;SDS011;6867;50.998;4.250;2024-03-29T09:11:30;3.40;;;1.58;;
13592;SDS011;6867;50.998;4.250;2024-03-29T09:13:59;1.92;;;1.50;;
13592;SDS011;6867;50.998;4.250;2024-03-29T09:16:26;2.70;;;1.30;;
13592;SDS011;6867;50.998;4.250;2024-03-29T09:18:53;4.13;;;1.80;;
13592;SDS011;6867;50.998;4.250;2024-03-29T09:21:21;3.25;;;1.52;;
13592;SDS011;6867;50.998;4.250;2024-03-29T09:23:48;2.30;;;1.10;;
13592;SDS011;6867;50.998;4.250;2024-03-29T09:26:17;2.33;;;1.30;;
13592;SDS011;6867;50.998;4.250;2024-03-29T09:28:44;1.75;;;1.23;;
13592;SDS011;6867;50.998;4.250;2024-03-29T09:31:13;2.22;;;1.17;;
13592;SDS011;6867;50.998;4.250;2024-03-29T09:33:39;2.63;;;1.27;;
13592;SDS011;6867;50.998;4.250;2024-03-29T09:36:06;1.60;;;1.10;;
13592;SDS011;6867;50.998;4.250;2024-03-29T09:38:36;2.13;;;1.15;;
13592;SDS011;6867;50.998;4.250;2024-03-29T09:41:04;2.67;;;1.10;;
13592;SDS011;6867;50.998;4.250;2024-03-29T09:43:36;1.05;;;0.90;;
13592;SDS011;6867;50.998;4.250;2024-03-29T09:46:04;3.15;;;0.90;;
13592;SDS011;6867;50.998;4.250;2024-03-29T09:48:33;1.88;;;0.82;;
13592;SDS011;6867;50.998;4.250;2024-03-29T09:51:03;0.82;;;0.57;;
13592;SDS011;6867;50.998;4.250;2024-03-29T09:53:32;2.67;;;0.80;;
13592;SDS011;6867;50.998;4.250;2024-03-29T09:56:01;0.90;;;0.68;;
13592;SDS011;6867;50.998;4.250;2024-03-29T09:58:29;2.05;;;0.70;;
13592;SDS011;6867;50.998;4.250;2024-03-29T10:00:56;1.65;;;0.60;;
13592;SDS011;6867;50.998;4.250;2024-03-29T10:03:25;1.40;;;1.00;;
13592;SDS011;6867;50.998;4.250;2024-03-29T10:05:57;1.02;;;0.70;;
13592;SDS011;6867;50.998;4.250;2024-03-29T10:08:25;0.85;;;0.82;;
13592;SDS011;6867;50.998;4.250;2024-03-29T10:10:52;1.45;;;0.73;;
13592;SDS011;6867;50.998;4.250;2024-03-29T10:13:20;2.22;;;0.80;;
13592;SDS011;6867;50.998;4.250;2024-03-29T10:15:48;2.80;;;1.60;;
13592;SDS011;6867;50.998;4.250;2024-03-29T10:18:17;3.33;;;0.80;;
13592;SDS011;6867;50.998;4.250;2024-03-29T10:20:45;1.08;;;0.98;;
13592;SDS011;6867;50.998;4.250;2024-03-29T10:23:13;1.00;;;0.90;;
13592;SDS011;6867;50.998;4.250;2024-03-29T10:25:42;1.20;;;1.00;;
13592;SDS011;6867;50.998;4.250;2024-03-29T10:28:09;1.20;;;0.70;;
13592;SDS011;6867;50.998;4.250;2024-03-29T10:30:37;1.33;;;1.02;;
13592;SDS011;6867;50.998;4.250;2024-03-29T10:33:04;1.60;;;1.10;;
13592;SDS011;6867;50.998;4.250;2024-03-29T10:35:31;1.02;;;0.77;;
13592;SDS011;6867;50.998;4.250;2024-03-29T10:37:58;1.45;;;0.80;;
13592;SDS011;6867;50.998;4.250;2024-03-29T10:40:29;0.80;;;0.75;;
13592;SDS011;6867;50.998;4.250;2024-03-29T10:42:56;1.85;;;0.85;;
13592;SDS011;6867;50.998;4.250;2024-03-29T10:45:25;0.98;;;0.70;;
13592;SDS011;6867;50.998;4.250;2024-03-29T10:47:53;1.92;;;0.70;;
13592;SDS011;6867;50.998;4.250;2024-03-29T10:50:20;1.70;;;0.95;;
13592;SDS011;6867;50.998;4.250;2024-03-29T10:52:48;1.35;;;0.70;;
13592;SDS011;6867;50.998;4.250;2024-03-29T10:55:15;1.00;;;0.70;;
13592;SDS011;6867;50.998;4.250;2024-03-29T10:57:43;1.10;;;0.90;;
13592;SDS011;6867;50.998;4.250;2024-03-29T11:00:13;1.13;;;0.85;;
13592;SDS011;6867;50.998;4.250;2024-03-29T11:02:45;1.85;;;0.65;;
13592;SDS011;6867;50.998;4.250;2024-03-29T11:05:16;2.35;;;0.73;;
13592;SDS011;6867;50.998;4.250;2024-03-29T11:07:44;1.23;;;0.60;;
13592;SDS011;6867;50.998;4.250;2024-03-29T11:10:13;1.13;;;0.70;;
13592;SDS011;6867;50.998;4.250;2024-03-29T11:12:45;1.08;;;0.50;;
13592;SDS011;6867;50.998;4.250;2024-03-29T11:15:28;1.77;;;1.20;;
13592;SDS011;6867;50.998;4.250;2024-03-29T11:17:56;0.70;;;0.60;;
13592;SDS011;6867;50.998;4.250;2024-03-29T11:20:24;1.17;;;0.68;;
13592;SDS011;6867;50.998;4.250;2024-03-29T11:23:00;0.73;;;0.50;;
13592;SDS011;6867;50.998;4.250;2024-03-29T11:25:38;0.60;;;0.60;;
13592;SDS011;6867;50.998;4.250;2024-03-29T11:28:07;1.00;;;0.60;;
13592;SDS011;6867;50.998;4.250;2024-03-29T11:30:39;0.70;;;0.60;;
13592;SDS011;6867;50.998;4.250;2024-03-29T11:33:07;0.73;;;0.60;;
13592;SDS011;6867;50.998;4.250;2024-03-29T11:35:38;0.50;;;0.50;;
13592;SDS011;6867;50.998;4.250;2024-03-29T11:38:06;3.78;;;0.60;;
13592;SDS011;6867;50.998;4.250;2024-03-29T11:40:35;1.75;;;0.80;;
13592;SDS011;6867;50.998;4.250;2024-03-29T11:43:02;0.75;;;0.50;;
13592;SDS011;6867;50.998;4.250;2024-03-29T11:45:31;0.90;;;0.77;;
13592;SDS011;6867;50.998;4.250;2024-03-29T11:47:59;1.05;;;0.70;;
13592;SDS011;6867;50.998;4.250;2024-03-29T11:50:33;1.42;;;0.60;;
13592;SDS011;6867;50.998;4.250;2024-03-29T11:53:02;0.40;;;0.40;;
13592;SDS011;6867;50.998;4.250;2024-03-29T11:55:29;0.40;;;0.30;;
13592;SDS011;6867;50.998;4.250;2024-03-29T11:57:58;0.60;;;0.60;;
13592;SDS011;6867;50.998;4.250;2024-03-29T12:00:24;1.50;;;0.70;;
13592;SDS011;6867;50.998;4.250;2024-03-29T12:02:56;0.60;;;0.40;;
13592;SDS011;6867;50.998;4.250;2024-03-29T12:05:24;0.73;;;0.40;;
13592;SDS011;6867;50.998;4.250;2024-03-29T12:07:51;1.67;;;0.82;;
13592;SDS011;6867;50.998;4.250;2024-03-29T12:10:18;1.77;;;0.50;;
13592;SDS011;6867;50.998;4.250;2024-03-29T12:12:45;1.35;;;0.60;;
13592;SDS011;6867;50.998;4.250;2024-03-29T12:15:12;0.70;;;0.40;;
13592;SDS011;6867;50.998;4.250;2024-03-29T12:17:38;0.68;;;0.35;;
13592;SDS011;6867;50.998;4.250;2024-03-29T12:20:09;0.40;;;0.40;;
13592;SDS011;6867;50.998;4.250;2024-03-29T12:22:37;2.08;;;0.50;;
13592;SDS011;6867;50.998;4.250;2024-03-29T12:25:05;0.40;;;0.40;;
13592;SDS011;6867;50.998;4.250;2024-03-29T12:27:31;3.10;;;0.60;;
13592;SDS011;6867;50.998;4.250;2024-03-29T12:29:58;0.45;;;0.32;;
13592;SDS011;6867;50.998;4.250;2024-03-29T12:32:25;1.60;;;0.52;;
13592;SDS011;6867;50.998;4.250;2024-03-29T12:34:52;0.55;;;0.52;;
13592;SDS011;6867;50.998;4.250;2024-03-29T12:37:22;2.15;;;0.70;;
13592;SDS011;6867;50.998;4.250;2024-03-29T12:39:51;0.63;;;0.55;;
13592;SDS011;6867;50.998;4.250;2024-03-29T12:42:21;0.88;;;0.55;;
13592;SDS011;6867;50.998;4.250;2024-03-29T12:44:47;0.90;;;0.57;;
13592;SDS011;6867;50.998;4.250;2024-03-29T12:47:14;2.15;;;0.80;;
13592;SDS011;6867;50.998;4.250;2024-03-29T12:49:41;2.35;;;0.75;;
13592;SDS011;6867;50.998;4.250;2024-03-29T12:52:09;1.65;;;0.73;;
13592;SDS011;6867;50.998;4.250;2024-03-29T12:54:37;0.85;;;0.80;;
13592;SDS011;6867;50.998;4.250;2024-03-29T12:57:04;1.00;;;0.60;;
13592;SDS011;6867;50.998;4.250;2024-03-29T12:59:33;2.20;;;0.63;;
13592;SDS011;6867;50.998;4.250;2024-03-29T13:02:00;1.88;;;0.60;;
13592;SDS011;6867;50.998;4.250;2024-03-29T13:04:29;1.83;;;0.60;;
13592;SDS011;6867;50.998;4.250;2024-03-29T13:06:56;0.60;;;0.60;;
13592;SDS011;6867;50.998;4.250;2024-03-29T13:09:22;1.05;;;0.65;;
13592;SDS011;6867;50.998;4.250;2024-03-29T13:11:50;2.25;;;0.73;;
13592;SDS011;6867;50.998;4.250;2024-03-29T13:14:17;2.17;;;0.70;;
13592;SDS011;6867;50.998;4.250;2024-03-29T13:16:44;0.75;;;0.50;;
13592;SDS011;6867;50.998;4.250;2024-03-29T13:19:10;1.45;;;0.60;;
13592;SDS011;6867;50.998;4.250;2024-03-29T13:21:37;2.38;;;0.60;;
13592;SDS011;6867;50.998;4.250;2024-03-29T13:24:04;0.70;;;0.68;;
13592;SDS011;6867;50.998;4.250;2024-03-29T13:26:31;1.77;;;0.65;;
13592;SDS011;6867;50.998;4.250;2024-03-29T13:28:59;0.50;;;0.50;;
13592;SDS011;6867;50.998;4.250;2024-03-29T13:31:29;0.80;;;0.60;;
13592;SDS011;6867;50.998;4.250;2024-03-29T13:33:58;1.13;;;0.73;;
13592;SDS011;6867;50.998;4.250;2024-03-29T13:36:36;2.30;;;0.75;;
13592;SDS011;6867;50.998;4.250;2024-03-29T13:39:03;0.85;;;0.63;;
13592;SDS011;6867;50.998;4.250;2024-03-29T13:41:30;0.60;;;0.60;;
13592;SDS011;6867;50.998;4.250;2024-03-29T13:43:56;1.42;;;0.75;;
13592;SDS011;6867;50.998;4.250;2024-03-29T13:46:26;5.20;;;0.60;;
13592;SDS011;6867;50.998;4.250;2024-03-29T13:48:53;1.08;;;0.82;;
13592;SDS011;6867;50.998;4.250;2024-03-29T13:51:19;1.08;;;0.80;;
13592;SDS011;6867;50.998;4.250;2024-03-29T13:53:49;1.27;;;0.55;;
13592;SDS011;6867;50.998;4.250;2024-03-29T13:56:16;0.88;;;0.50;;
13592;SDS011;6867;50.998;4.250;2024-03-29T13:58:42;0.55;;;0.40;;
13592;SDS011;6867;50.998;4.250;2024-03-29T14:01:09;2.28;;;0.40;;
13592;SDS011;6867;50.998;4.250;2024-03-29T14:03:37;3.10;;;0.68;;
13592;SDS011;6867;50.998;4.250;2024-03-29T14:06:04;0.50;;;0.50;;
13592;SDS011;6867;50.998;4.250;2024-03-29T14:08:31;1.00;;;0.50;;
13592;SDS011;6867;50.998;4.250;2024-03-29T14:10:58;1.45;;;0.57;;
13592;SDS011;6867;50.998;4.250;2024-03-29T14:13:25;0.80;;;0.40;;
13592;SDS011;6867;50.998;4.250;2024-03-29T14:15:52;0.82;;;0.50;;
13592;SDS011;6867;50.998;4.250;2024-03-29T14:18:19;1.20;;;0.50;;
13592;SDS011;6867;50.998;4.250;2024-03-29T14:20:47;3.42;;;0.60;;
13592;SDS011;6867;50.998;4.250;2024-03-29T14:23:14;1.33;;;0.50;;
13592;SDS011;6867;50.998;4.250;2024-03-29T14:25:43;0.70;;;0.60;;
13592;SDS011;6867;50.998;4.250;2024-03-29T14:28:10;0.57;;;0.55;;
13592;SDS011;6867;50.998;4.250;2024-03-29T14:30:37;1.27;;;0.80;;
13592;SDS011;6867;50.998;4.250;2024-03-29T14:33:03;0.63;;;0.60;;
13592;SDS011;6867;50.998;4.250;2024-03-29T14:35:33;0.63;;;0.63;;
13592;SDS011;6867;50.998;4.250;2024-03-29T14:38:02;1.35;;;0.60;;
13592;SDS011;6867;50.998;4.250;2024-03-29T14:40:29;1.25;;;1.00;;
13592;SDS011;6867;50.998;4.250;2024-03-29T14:42:56;1.13;;;1.02;;
13592;SDS011;6867;50.998;4.250;2024-03-29T14:45:24;0.82;;;0.70;;
13592;SDS011;6867;50.998;4.250;2024-03-29T14:47:50;2.05;;;0.63;;
13592;SDS011;6867;50.998;4.250;2024-03-29T14:50:19;1.23;;;0.57;;
13592;SDS011;6867;50.998;4.250;2024-03-29T14:52:46;1.33;;;0.80;;
13592;SDS011;6867;50.998;4.250;2024-03-29T14:55:14;0.73;;;0.52;;
13592;SDS011;6867;50.998;4.250;2024-03-29T14:57:41;1.80;;;0.70;;
13592;SDS011;6867;50.998;4.250;2024-03-29T15:00:08;0.65;;;0.60;;
13592;SDS011;6867;50.998;4.250;2024-03-29T15:02:35;1.98;;;0.82;;